Time;durP1;ratioP1;P1;durP2;ratioP2;P2;SDS_P1;SDS_P2;PMS_P1;PMS_P2;Temp;Humidity;BMP_temperature;BMP_pressure;BME280_temperature;BME280_humidity;BME280_pressure;Samples;Min_cycle;Max_cycle;Signal;HPM_P1;HPM_P2
2023/03/13 00:01:13;;;;;;;10.20;7.10;;;;;;;;;;4948335;28;20047;-78
2023/03/13 00:03:41;;;;;;;12.10;7.43;;;;;;;;;;4954767;28;20055;-78
2023/03/13 00:06:11;;;;;;;14.32;7.18;;;;;;;;;;4940604;29;20055;-78
2023/03/13 00:08:43;;;;;;;13.18;6.60;;;;;;;;;;4924620;28;20071;-78
2023/03/13 00:11:14;;;;;;;11.35;7.63;;;;;;;;;;4941412;29;20051;-78
2023/03/13 00:13:44;;;;;;;12.93;7.20;;;;;;;;;;4938868;28;20056;-78
2023/03/13 00:16:17;;;;;;;11.02;8.45;;;;;;;;;;4947396;29;20054;-78
2023/03/13 00:18:48;;;;;;;13.10;7.32;;;;;;;;;;4946917;23;20509;-79
2023/03/13 00:21:16;;;;;;;15.57;8.23;;;;;;;;;;4927880;29;20498;-80
2023/03/13 00:23:45;;;;;;;14.48;8.75;;;;;;;;;;4923663;29;20056;-80
2023/03/13 00:26:17;;;;;;;11.02;7.45;;;;;;;;;;4921039;29;20036;-80
2023/03/13 00:28:45;;;;;;;11.27;6.35;;;;;;;;;;4923938;29;20114;-80
2023/03/13 00:31:14;;;;;;;13.77;7.10;;;;;;;;;;4927567;29;20491;-80
2023/03/13 00:33:43;;;;;;;13.07;6.80;;;;;;;;;;4895036;29;20064;-80
2023/03/13 00:36:12;;;;;;;15.32;7.43;;;;;;;;;;4913762;29;20044;-80
2023/03/13 00:38:40;;;;;;;11.57;7.85;;;;;;;;;;4922559;29;20543;-80
2023/03/13 00:41:11;;;;;;;10.00;7.40;;;;;;;;;;4896332;29;20071;-80
2023/03/13 00:43:43;;;;;;;14.20;8.35;;;;;;;;;;4925813;29;20048;-80
2023/03/13 00:46:15;;;;;;;13.13;7.32;;;;;;;;;;4911915;29;20056;-80
2023/03/13 00:48:45;;;;;;;17.15;7.97;;;;;;;;;;4909489;29;20048;-80
2023/03/13 00:51:16;;;;;;;13.15;8.05;;;;;;;;;;4916190;29;20450;-80
2023/03/13 00:53:51;;;;;;;;;;;;;;;;;;4927788;29;20063;-81
2023/03/13 00:56:22;;;;;;;12.60;7.82;;;;;;;;;;4928156;29;20329;-81
2023/03/13 00:58:50;;;;;;;14.80;8.60;;;;;;;;;;4908814;29;20072;-80
2023/03/13 01:01:22;;;;;;;11.48;7.43;;;;;;;;;;4911170;29;20074;-80
2023/03/13 01:03:51;;;;;;;12.90;8.27;;;;;;;;;;4910214;29;20056;-80
2023/03/13 01:06:25;;;;;;;10.07;8.73;;;;;;;;;;4921960;29;20071;-80
2023/03/13 01:08:52;;;;;;;11.50;8.05;;;;;;;;;;4909708;29;20055;-80
2023/03/13 01:11:23;;;;;;;12.48;7.70;;;;;;;;;;4893490;29;20063;-80
2023/03/13 01:13:54;;;;;;;17.00;7.70;;;;;;;;;;4908227;29;20432;-80
2023/03/13 01:16:22;;;;;;;12.90;6.65;;;;;;;;;;4911404;29;20048;-80
2023/03/13 01:18:51;;;;;;;10.15;7.50;;;;;;;;;;4909089;29;20052;-80
2023/03/13 01:21:19;;;;;;;11.45;8.02;;;;;;;;;;4911357;29;20047;-80
2023/03/13 01:23:49;;;;;;;13.30;6.60;;;;;;;;;;4908891;29;20419;-80
2023/03/13 01:26:19;;;;;;;10.85;7.53;;;;;;;;;;4909834;29;20040;-80
2023/03/13 01:28:50;;;;;;;10.88;7.65;;;;;;;;;;4926097;29;20059;-80
2023/03/13 01:31:22;;;;;;;16.23;9.98;;;;;;;;;;4895884;29;20063;-80
2023/03/13 01:33:51;;;;;;;12.50;8.40;;;;;;;;;;4913063;29;20458;-80
2023/03/13 01:36:21;;;;;;;11.48;7.72;;;;;;;;;;4911945;29;20424;-80
2023/03/13 01:38:48;;;;;;;9.98;6.88;;;;;;;;;;4911293;29;20514;-80
2023/03/13 01:41:16;;;;;;;10.43;6.63;;;;;;;;;;4893994;29;20048;-80
2023/03/13 01:43:45;;;;;;;11.43;7.65;;;;;;;;;;4927145;29;20407;-80
2023/03/13 01:46:17;;;;;;;10.35;6.78;;;;;;;;;;4910528;29;20052;-80
2023/03/13 01:48:57;;;;;;;9.25;6.68;;;;;;;;;;4911610;29;20052;-80
2023/03/13 01:51:29;;;;;;;11.65;6.53;;;;;;;;;;4895133;29;20048;-80
2023/03/13 01:54:01;;;;;;;12.85;8.18;;;;;;;;;;4911697;29;20056;-80
2023/03/13 01:56:34;;;;;;;10.65;8.48;;;;;;;;;;4917934;29;20048;-80
2023/03/13 01:59:02;;;;;;;10.25;7.10;;;;;;;;;;4912979;29;20063;-80
2023/03/13 02:01:36;;;;;;;14.20;7.63;;;;;;;;;;4911705;29;20059;-80
2023/03/13 02:04:06;;;;;;;11.40;7.05;;;;;;;;;;4908618;29;20049;-80
2023/03/13 02:06:39;;;;;;;10.93;7.95;;;;;;;;;;4925331;29;20055;-80
2023/03/13 02:09:15;;;;;;;17.80;7.55;;;;;;;;;;4891607;29;20055;-80
2023/03/13 02:11:47;;;;;;;13.18;7.32;;;;;;;;;;4925336;29;20056;-80
2023/03/13 02:14:16;;;;;;;14.45;6.53;;;;;;;;;;4921067;29;20053;-80
2023/03/13 02:16:47;;;;;;;11.27;7.30;;;;;;;;;;4905601;29;20454;-80
2023/03/13 02:19:19;;;;;;;8.38;7.53;;;;;;;;;;4891267;29;20057;-80
2023/03/13 02:21:52;;;;;;;10.80;7.28;;;;;;;;;;4909142;29;20150;-80
2023/03/13 02:24:29;;;;;;;14.10;6.63;;;;;;;;;;4923761;29;20064;-80
2023/03/13 02:26:58;;;;;;;11.27;7.45;;;;;;;;;;4907559;29;20521;-80
2023/03/13 02:29:25;;;;;;;17.75;9.32;;;;;;;;;;4910792;29;20083;-80
2023/03/13 02:31:53;;;;;;;8.90;6.15;;;;;;;;;;4909686;29;20052;-80
2023/03/13 02:34:22;;;;;;;12.05;7.28;;;;;;;;;;4908631;29;20061;-80
2023/03/13 02:36:50;;;;;;;11.98;9.57;;;;;;;;;;4906349;29;20415;-80
2023/03/13 02:39:25;;;;;;;11.85;8.75;;;;;;;;;;4910851;29;20052;-80
2023/03/13 02:42:01;;;;;;;20.00;9.50;;;;;;;;;;4921903;29;20676;-80
2023/03/13 02:44:34;;;;;;;13.45;7.90;;;;;;;;;;4910187;29;20065;-80
2023/03/13 02:47:08;;;;;;;13.60;8.20;;;;;;;;;;4909465;29;20397;-80
2023/03/13 02:49:37;;;;;;;9.85;7.07;;;;;;;;;;4897164;29;20060;-80
2023/03/13 02:52:10;;;;;;;16.70;7.10;;;;;;;;;;4913642;29;20383;-80
2023/03/13 02:54:38;;;;;;;18.30;9.13;;;;;;;;;;4917868;29;20052;-80
2023/03/13 02:57:09;;;;;;;15.60;8.65;;;;;;;;;;4897229;29;20063;-79
2023/03/13 02:59:36;;;;;;;10.88;7.25;;;;;;;;;;4931772;29;20060;-80
2023/03/13 03:02:04;;;;;;;8.55;6.50;;;;;;;;;;4914417;29;20500;-80
2023/03/13 03:04:31;;;;;;;5.00;2.92;;;;;;;;;;4921350;29;20063;-80
2023/03/13 03:06:58;;;;;;;4.97;2.22;;;;;;;;;;4904935;29;20055;-79
2023/03/13 03:09:25;;;;;;;3.47;2.17;;;;;;;;;;4938433;28;20052;-80
2023/03/13 03:11:59;;;;;;;2.92;2.05;;;;;;;;;;4921754;29;20052;-80
2023/03/13 03:14:32;;;;;;;3.88;1.73;;;;;;;;;;4913636;29;20063;-80
2023/03/13 03:16:59;;;;;;;8.15;1.95;;;;;;;;;;4912716;29;20055;-80
2023/03/13 03:19:27;;;;;;;4.50;1.63;;;;;;;;;;4910608;29;20059;-80
2023/03/13 03:22:04;;;;;;;5.75;1.77;;;;;;;;;;4925405;29;20067;-80
2023/03/13 03:24:34;;;;;;;4.60;1.42;;;;;;;;;;4928833;29;20059;-80
2023/03/13 03:27:01;;;;;;;8.93;3.08;;;;;;;;;;4909997;29;20044;-80
2023/03/13 03:29:37;;;;;;;5.45;1.65;;;;;;;;;;4913919;29;20072;-80
2023/03/13 03:32:07;;;;;;;6.90;1.92;;;;;;;;;;4896498;29;20142;-80
2023/03/13 03:34:34;;;;;;;5.63;1.85;;;;;;;;;;4912779;29;20062;-80
2023/03/13 03:37:04;;;;;;;1.55;1.30;;;;;;;;;;4895192;29;20527;-80
2023/03/13 03:39:31;;;;;;;2.50;1.25;;;;;;;;;;4920032;29;20056;-80
2023/03/13 03:41:59;;;;;;;1.98;1.30;;;;;;;;;;4913671;29;20047;-80
2023/03/13 03:44:30;;;;;;;2.88;1.20;;;;;;;;;;4924460;29;20052;-80
2023/03/13 03:47:01;;;;;;;3.00;1.25;;;;;;;;;;4928868;29;20052;-80
2023/03/13 03:49:32;;;;;;;6.70;1.20;;;;;;;;;;4897961;29;20075;-80
2023/03/13 03:52:02;;;;;;;4.90;1.42;;;;;;;;;;4928561;29;20059;-80
2023/03/13 03:54:36;;;;;;;3.72;1.50;;;;;;;;;;4898960;29;20051;-80
2023/03/13 03:57:28;;;;;;;4.70;2.03;;;;;;;;;;4905477;29;20052;-80
2023/03/13 03:59:59;;;;;;;2.50;2.13;;;;;;;;;;4912179;29;20059;-80
2023/03/13 04:02:31;;;;;;;5.50;1.05;;;;;;;;;;4928173;29;20064;-80
2023/03/13 04:04:58;;;;;;;4.40;1.48;;;;;;;;;;4897362;29;20056;-80
2023/03/13 04:07:32;;;;;;;3.55;1.85;;;;;;;;;;4893468;29;20526;-80
2023/03/13 04:09:59;;;;;;;3.63;1.27;;;;;;;;;;4912477;29;20059;-80
2023/03/13 04:12:36;;;;;;;6.53;1.30;;;;;;;;;;4928668;29;20067;-80
2023/03/13 04:15:07;;;;;;;4.90;1.25;;;;;;;;;;4913695;29;20410;-80
2023/03/13 04:17:36;;;;;;;2.72;1.08;;;;;;;;;;4911372;29;20055;-80
2023/03/13 04:20:07;;;;;;;4.38;1.00;;;;;;;;;;4923176;29;20485;-80
2023/03/13 04:22:41;;;;;;;2.47;1.30;;;;;;;;;;4925350;29;20543;-80
2023/03/13 04:25:11;;;;;;;2.25;0.65;;;;;;;;;;4920867;29;20060;-80
2023/03/13 04:27:38;;;;;;;2.00;1.30;;;;;;;;;;4930032;29;20067;-80
2023/03/13 04:30:20;;;;;;;6.75;1.30;;;;;;;;;;4914465;29;20055;-81
2023/03/13 04:33:05;;;;;;;2.43;1.47;;;;;;;;;;4903761;29;20078;-81
2023/03/13 04:35:49;;;;;;;1.92;0.93;;;;;;;;;;4909706;29;20395;-80
2023/03/13 04:38:39;;;;;;;2.40;0.93;;;;;;;;;;4912911;29;20052;-81
2023/03/13 04:41:16;;;;;;;4.95;1.00;;;;;;;;;;4913643;29;20047;-80
2023/03/13 04:43:51;;;;;;;4.38;1.00;;;;;;;;;;4923696;29;20414;-80
2023/03/13 04:46:38;;;;;;;2.33;0.90;;;;;;;;;;4910841;29;20044;-81
2023/03/13 04:49:13;;;;;;;4.50;1.50;;;;;;;;;;4910730;29;20048;-81
2023/03/13 04:52:05;;;;;;;2.53;0.80;;;;;;;;;;4907167;29;20139;-81
2023/03/13 04:54:50;;;;;;;1.95;1.30;;;;;;;;;;4927860;29;20059;-81
2023/03/13 04:57:40;;;;;;;3.40;1.60;;;;;;;;;;4911808;29;20071;-81
2023/03/13 05:00:23;;;;;;;2.42;2.20;;;;;;;;;;4911439;29;20055;-79
2023/03/13 05:03:07;;;;;;;1.20;0.88;;;;;;;;;;4923858;29;20051;-80
2023/03/13 05:06:08;;;;;;;2.33;1.05;;;;;;;;;;4911769;29;20055;-81
2023/03/13 05:08:56;;;;;;;1.13;0.93;;;;;;;;;;4916275;29;20055;-81
2023/03/13 05:12:01;;;;;;;0.93;0.60;;;;;;;;;;4910606;29;20052;-81
2023/03/13 05:14:53;;;;;;;1.02;0.82;;;;;;;;;;4912796;29;20040;-81
2023/03/13 05:17:39;;;;;;;2.47;2.05;;;;;;;;;;4904731;29;20520;-81
2023/03/13 05:20:30;;;;;;;1.27;0.73;;;;;;;;;;4895369;29;20056;-80
2023/03/13 05:23:17;;;;;;;4.32;1.30;;;;;;;;;;4929303;29;20074;-80
2023/03/13 05:25:57;;;;;;;1.65;0.95;;;;;;;;;;4904770;29;20514;-80
2023/03/13 05:28:39;;;;;;;1.02;0.77;;;;;;;;;;4902648;29;20058;-80
2023/03/13 05:31:19;;;;;;;1.75;1.20;;;;;;;;;;4932581;29;20384;-81
2023/03/13 05:34:00;;;;;;;0.60;0.60;;;;;;;;;;4910041;29;20059;-81
2023/03/13 05:36:43;;;;;;;1.30;0.80;;;;;;;;;;4927263;29;20062;-81
2023/03/13 05:39:36;;;;;;;0.70;0.70;;;;;;;;;;4916084;29;20056;-81
2023/03/13 05:42:15;;;;;;;1.77;0.70;;;;;;;;;;4897185;29;20067;-81
2023/03/13 05:45:00;;;;;;;1.02;0.82;;;;;;;;;;4894994;29;20052;-81
2023/03/13 05:47:46;;;;;;;3.00;1.38;;;;;;;;;;4910912;29;20434;-81
2023/03/13 05:50:37;;;;;;;1.88;1.10;;;;;;;;;;4896787;29;20044;-81
2023/03/13 05:53:23;;;;;;;2.20;1.35;;;;;;;;;;4898597;29;20067;-81
2023/03/13 05:56:06;;;;;;;3.05;1.15;;;;;;;;;;4898264;29;20066;-81
2023/03/13 05:58:44;;;;;;;2.75;1.40;;;;;;;;;;4914388;29;20048;-81
2023/03/13 06:01:50;;;;;;;2.13;0.90;;;;;;;;;;4891494;29;20044;-81
2023/03/13 06:04:26;;;;;;;2.88;1.20;;;;;;;;;;4900729;29;20383;-81
2023/03/13 06:06:57;;;;;;;3.20;1.23;;;;;;;;;;4880854;29;20052;-81
2023/03/13 06:09:24;;;;;;;2.42;1.77;;;;;;;;;;4910943;29;20064;-81
2023/03/13 06:11:56;;;;;;;4.32;1.05;;;;;;;;;;4900644;29;20060;-81
2023/03/13 06:14:24;;;;;;;2.13;0.75;;;;;;;;;;4900696;29;20063;-82
2023/03/13 06:17:24;;;;;;;1.85;0.77;;;;;;;;;;4901668;29;20064;-81
2023/03/13 06:19:56;;;;;;;1.15;0.85;;;;;;;;;;4920200;23;20056;-78
2023/03/13 06:22:25;;;;;;;1.08;0.60;;;;;;;;;;4902015;29;20135;-79
2023/03/13 06:24:57;;;;;;;1.35;1.00;;;;;;;;;;4904736;29;20052;-79
2023/03/13 06:27:28;;;;;;;2.33;1.20;;;;;;;;;;4920725;29;20067;-79
2023/03/13 06:29:55;;;;;;;1.67;0.80;;;;;;;;;;4905011;29;20426;-79
2023/03/13 06:32:22;;;;;;;3.20;1.10;;;;;;;;;;4915165;29;20068;-79
2023/03/13 06:34:50;;;;;;;1.50;0.70;;;;;;;;;;4912537;29;20044;-79
2023/03/13 06:37:22;;;;;;;3.22;1.35;;;;;;;;;;4921950;29;20052;-78
2023/03/13 06:39:51;;;;;;;2.08;0.88;;;;;;;;;;4937275;29;20054;-78
2023/03/13 06:42:21;;;;;;;0.47;0.47;;;;;;;;;;4948664;29;20063;-78
2023/03/13 06:44:54;;;;;;;1.00;0.75;;;;;;;;;;4915232;29;20056;-79
2023/03/13 06:47:21;;;;;;;2.03;0.60;;;;;;;;;;4927488;29;20060;-79
2023/03/13 06:49:51;;;;;;;0.77;0.70;;;;;;;;;;4917735;29;20410;-79
2023/03/13 06:52:18;;;;;;;4.55;0.60;;;;;;;;;;4924255;29;20056;-79
2023/03/13 06:54:48;;;;;;;0.68;0.60;;;;;;;;;;4916494;29;20048;-78
2023/03/13 06:57:15;;;;;;;1.15;0.70;;;;;;;;;;4920584;29;20052;-79
2023/03/13 06:59:44;;;;;;;2.80;0.80;;;;;;;;;;4915953;29;20048;-79
2023/03/13 07:02:15;;;;;;;0.90;0.70;;;;;;;;;;4915630;29;20048;-79
2023/03/13 07:04:43;;;;;;;1.50;0.60;;;;;;;;;;4917576;29;20056;-79
2023/03/13 07:07:10;;;;;;;0.75;0.52;;;;;;;;;;4905782;29;20065;-79
2023/03/13 07:09:39;;;;;;;1.83;0.80;;;;;;;;;;4903836;29;20044;-79
2023/03/13 07:12:07;;;;;;;1.17;0.50;;;;;;;;;;4918915;29;20044;-79
2023/03/13 07:14:34;;;;;;;0.95;0.70;;;;;;;;;;4903634;29;20131;-79
2023/03/13 07:17:04;;;;;;;2.88;0.80;;;;;;;;;;4913655;29;20517;-79
2023/03/13 07:19:32;;;;;;;0.82;0.60;;;;;;;;;;4916348;29;20052;-79
2023/03/13 07:21:59;;;;;;;0.50;0.47;;;;;;;;;;4920658;29;20056;-79
2023/03/13 07:24:27;;;;;;;1.35;0.60;;;;;;;;;;4914791;29;20059;-79
2023/03/13 07:26:54;;;;;;;2.08;0.70;;;;;;;;;;4919041;29;20075;-79
2023/03/13 07:29:23;;;;;;;2.28;0.55;;;;;;;;;;4915628;29;20044;-79
2023/03/13 07:31:51;;;;;;;1.38;0.85;;;;;;;;;;4894370;29;20048;-79
2023/03/13 07:34:18;;;;;;;0.47;0.32;;;;;;;;;;4915493;29;20048;-79
2023/03/13 07:36:49;;;;;;;0.68;0.50;;;;;;;;;;4915358;29;20055;-80
2023/03/13 07:39:16;;;;;;;1.25;0.80;;;;;;;;;;4913587;29;20149;-79
2023/03/13 07:41:43;;;;;;;1.02;0.70;;;;;;;;;;4915351;29;20531;-79
2023/03/13 07:44:16;;;;;;;2.40;0.85;;;;;;;;;;4912257;29;20048;-79
2023/03/13 07:46:43;;;;;;;0.95;0.90;;;;;;;;;;4912924;29;20063;-79
2023/03/13 07:49:12;;;;;;;2.33;0.60;;;;;;;;;;4903610;29;20063;-79
2023/03/13 07:51:40;;;;;;;2.60;0.60;;;;;;;;;;4913319;29;20060;-79
2023/03/13 07:54:08;;;;;;;0.85;0.52;;;;;;;;;;4914357;29;20052;-79
2023/03/13 07:56:38;;;;;;;1.75;0.45;;;;;;;;;;4921393;29;20048;-79
2023/03/13 07:59:07;;;;;;;0.93;0.60;;;;;;;;;;4912303;29;20052;-79
2023/03/13 08:01:35;;;;;;;1.05;0.75;;;;;;;;;;4911788;29;20054;-79
2023/03/13 08:04:02;;;;;;;4.07;1.10;;;;;;;;;;4926230;29;20060;-79
2023/03/13 08:06:31;;;;;;;8.70;7.22;;;;;;;;;;4916318;29;20052;-80
2023/03/13 08:08:58;;;;;;;1.77;1.50;;;;;;;;;;4919438;29;20056;-80
2023/03/13 08:11:29;;;;;;;1.85;0.52;;;;;;;;;;4919814;29;20418;-80
2023/03/13 08:13:59;;;;;;;1.45;0.90;;;;;;;;;;4901656;29;20063;-80
2023/03/13 08:16:27;;;;;;;1.50;0.73;;;;;;;;;;4913232;29;20518;-80
2023/03/13 08:18:56;;;;;;;1.35;0.50;;;;;;;;;;4920835;29;20054;-80
2023/03/13 08:21:28;;;;;;;2.00;0.82;;;;;;;;;;4901565;29;20391;-80
2023/03/13 08:23:58;;;;;;;1.48;0.70;;;;;;;;;;4900941;29;20063;-80
2023/03/13 08:26:27;;;;;;;1.40;0.60;;;;;;;;;;4901042;29;20506;-80
2023/03/13 08:29:03;;;;;;;1.33;1.20;;;;;;;;;;4922429;29;20056;-80
2023/03/13 08:31:34;;;;;;;1.13;0.70;;;;;;;;;;4910066;29;20055;-79
2023/03/13 08:34:02;;;;;;;1.98;0.63;;;;;;;;;;4901065;29;20056;-79
2023/03/13 08:36:57;;;;;;;0.55;0.50;;;;;;;;;;4923541;29;20060;-79
2023/03/13 08:39:26;;;;;;;1.40;0.75;;;;;;;;;;4912517;29;20517;-80
2023/03/13 08:41:53;;;;;;;1.95;1.17;;;;;;;;;;4913099;29;20054;-79
2023/03/13 08:44:24;;;;;;;1.00;0.90;;;;;;;;;;4912305;29;20060;-78
2023/03/13 08:46:54;;;;;;;1.65;0.82;;;;;;;;;;4908197;29;20052;-79
2023/03/13 08:49:21;;;;;;;0.95;0.57;;;;;;;;;;4909385;29;20047;-79
2023/03/13 08:51:51;;;;;;;0.90;0.60;;;;;;;;;;4900321;29;20041;-79
2023/03/13 08:54:20;;;;;;;2.05;0.47;;;;;;;;;;4917390;29;20056;-79
2023/03/13 08:56:47;;;;;;;0.70;0.70;;;;;;;;;;4917735;29;20066;-81
2023/03/13 08:59:15;;;;;;;2.47;0.90;;;;;;;;;;4912299;29;20052;-79
2023/03/13 09:01:46;;;;;;;1.20;0.63;;;;;;;;;;4891860;29;20055;-79
2023/03/13 09:04:16;;;;;;;3.08;0.88;;;;;;;;;;4915048;29;20523;-79
2023/03/13 09:06:43;;;;;;;0.90;0.55;;;;;;;;;;4911889;29;20453;-79
2023/03/13 09:09:10;;;;;;;3.22;1.02;;;;;;;;;;4911734;29;20060;-79
2023/03/13 09:11:39;;;;;;;1.73;1.25;;;;;;;;;;4910368;29;20055;-79
2023/03/13 09:14:06;;;;;;;1.75;1.00;;;;;;;;;;4913336;29;20418;-79
2023/03/13 09:16:35;;;;;;;0.52;0.43;;;;;;;;;;4926314;29;20060;-79
2023/03/13 09:19:03;;;;;;;0.85;0.60;;;;;;;;;;4931757;28;20043;-79
2023/03/13 09:21:32;;;;;;;1.77;0.80;;;;;;;;;;4915175;29;20056;-79
2023/03/13 09:23:59;;;;;;;1.50;1.00;;;;;;;;;;4911639;29;20058;-79
2023/03/13 09:26:27;;;;;;;0.93;0.77;;;;;;;;;;4917103;29;20048;-79
2023/03/13 09:28:55;;;;;;;0.80;0.65;;;;;;;;;;4919952;29;20524;-79
2023/03/13 09:31:28;;;;;;;1.08;0.93;;;;;;;;;;4908158;29;20510;-79
2023/03/13 09:34:01;;;;;;;1.10;0.73;;;;;;;;;;4912719;29;20051;-79
2023/03/13 09:36:32;;;;;;;1.20;0.90;;;;;;;;;;4924658;29;20048;-79
2023/03/13 09:39:04;;;;;;;2.42;0.70;;;;;;;;;;4917958;29;20059;-79
2023/03/13 09:41:35;;;;;;;2.47;0.98;;;;;;;;;;4926275;29;20059;-79
2023/03/13 09:44:11;;;;;;;3.05;0.82;;;;;;;;;;4912911;29;20056;-80
2023/03/13 09:46:45;;;;;;;1.52;1.02;;;;;;;;;;4912849;29;20054;-79
2023/03/13 09:49:30;;;;;;;1.63;0.80;;;;;;;;;;4918016;29;20051;-79
2023/03/13 09:52:04;;;;;;;2.30;0.73;;;;;;;;;;4910048;29;20052;-79
2023/03/13 09:54:35;;;;;;;3.22;0.70;;;;;;;;;;4909202;29;20060;-80
2023/03/13 09:57:08;;;;;;;1.42;0.77;;;;;;;;;;4923872;29;20064;-80
2023/03/13 09:59:42;;;;;;;2.55;0.80;;;;;;;;;;4918296;29;20519;-79
2023/03/13 10:02:18;;;;;;;1.35;0.93;;;;;;;;;;4928136;29;20051;-79
2023/03/13 10:04:52;;;;;;;0.80;0.77;;;;;;;;;;4916583;29;20064;-79
2023/03/13 10:07:23;;;;;;;3.03;1.10;;;;;;;;;;4915459;29;20443;-80
2023/03/13 10:09:52;;;;;;;1.75;1.65;;;;;;;;;;4920324;29;20442;-80
2023/03/13 10:12:21;;;;;;;1.88;1.23;;;;;;;;;;4930314;29;20055;-78
2023/03/13 10:15:00;;;;;;;1.45;1.17;;;;;;;;;;4914874;29;20048;-79
2023/03/13 10:17:33;;;;;;;4.13;0.90;;;;;;;;;;4913358;29;20057;-78
2023/03/13 10:20:08;;;;;;;1.20;1.10;;;;;;;;;;4903552;29;20058;-79
2023/03/13 10:22:37;;;;;;;3.10;1.50;;;;;;;;;;4916385;29;20052;-79
2023/03/13 10:25:21;;;;;;;5.20;2.30;;;;;;;;;;4914260;29;20048;-79
2023/03/13 10:27:54;;;;;;;2.42;1.90;;;;;;;;;;4916910;29;20410;-78
2023/03/13 10:30:24;;;;;;;3.20;1.92;;;;;;;;;;4920400;29;20052;-79
2023/03/13 10:32:54;;;;;;;2.35;1.33;;;;;;;;;;4929173;29;20048;-78
2023/03/13 10:35:25;;;;;;;1.77;1.17;;;;;;;;;;4912372;29;20060;-78
2023/03/13 10:38:03;;;;;;;1.42;0.95;;;;;;;;;;4922852;29;20064;-79
2023/03/13 10:40:41;;;;;;;2.05;1.20;;;;;;;;;;4931522;29;20044;-80
2023/03/13 10:43:13;;;;;;;1.70;1.10;;;;;;;;;;4914564;29;20406;-79
2023/03/13 10:45:40;;;;;;;1.05;0.80;;;;;;;;;;4928256;29;22322;-79
2023/03/13 10:48:12;;;;;;;2.10;0.93;;;;;;;;;;4927300;29;20059;-79
2023/03/13 10:50:43;;;;;;;1.02;0.88;;;;;;;;;;4916974;29;20049;-79
2023/03/13 10:53:24;;;;;;;;;;;;;;;;;;4914850;29;20052;-79
2023/03/13 10:55:53;;;;;;;1.50;1.38;;;;;;;;;;4915048;29;19930;-79
2023/03/13 10:58:47;;;;;;;2.50;1.20;;;;;;;;;;4913013;29;20052;-79
2023/03/13 11:01:19;;;;;;;2.30;1.40;;;;;;;;;;4912598;29;20060;-79
2023/03/13 11:03:47;;;;;;;3.85;1.10;;;;;;;;;;4912963;29;20055;-79
2023/03/13 11:06:28;;;;;;;1.17;0.70;;;;;;;;;;4906481;29;20399;-79
2023/03/13 11:09:03;;;;;;;1.40;1.02;;;;;;;;;;4914795;29;20418;-79
2023/03/13 11:11:44;;;;;;;1.45;1.08;;;;;;;;;;4931062;29;20410;-79
2023/03/13 11:14:16;;;;;;;2.35;1.33;;;;;;;;;;4912338;29;20052;-78
2023/03/13 11:16:48;;;;;;;1.40;1.20;;;;;;;;;;4919793;29;20052;-78
2023/03/13 11:19:41;;;;;;;2.53;1.20;;;;;;;;;;4917152;29;20063;-79
2023/03/13 11:22:21;;;;;;;2.92;1.25;;;;;;;;;;4898082;29;20051;-79
2023/03/13 11:24:59;;;;;;;1.23;0.98;;;;;;;;;;4915110;29;20064;-79
2023/03/13 11:27:34;;;;;;;1.13;0.90;;;;;;;;;;4910251;29;20063;-79
2023/03/13 11:30:16;;;;;;;1.73;1.23;;;;;;;;;;4913294;29;20063;-79
2023/03/13 11:32:51;;;;;;;2.13;1.10;;;;;;;;;;4913838;29;20067;-79
2023/03/13 11:35:32;;;;;;;2.67;2.00;;;;;;;;;;4919014;29;20056;-79
2023/03/13 11:38:05;;;;;;;2.88;1.20;;;;;;;;;;4916559;29;20399;-79
2023/03/13 11:40:44;;;;;;;1.92;0.80;;;;;;;;;;4911694;29;20052;-79
2023/03/13 11:43:23;;;;;;;2.80;1.27;;;;;;;;;;4915320;29;20384;-79
2023/03/13 11:46:15;;;;;;;1.67;1.05;;;;;;;;;;4931678;29;20047;-78
2023/03/13 11:49:44;;;;;;;5.07;1.30;;;;;;;;;;4914260;29;20047;-79
2023/03/13 11:52:42;;;;;;;3.65;1.02;;;;;;;;;;4908684;29;20052;-79
2023/03/13 11:55:13;;;;;;;;;;;;;;;;;;4898753;29;20048;-79
2023/03/13 11:57:48;;;;;;;2.55;1.25;;;;;;;;;;4905522;29;19930;-79
2023/03/13 12:00:21;;;;;;;2.67;1.10;;;;;;;;;;4916766;29;20048;-79
2023/03/13 12:02:52;;;;;;;1.60;1.20;;;;;;;;;;4926983;29;20048;-79
2023/03/13 12:05:20;;;;;;;2.97;1.83;;;;;;;;;;4917861;29;20056;-79
2023/03/13 12:07:54;;;;;;;1.85;1.00;;;;;;;;;;4914243;29;20052;-79
2023/03/13 12:10:26;;;;;;;1.88;1.25;;;;;;;;;;4916133;29;20078;-79
2023/03/13 12:13:00;;;;;;;4.90;1.93;;;;;;;;;;4912835;29;20052;-79
2023/03/13 12:15:30;;;;;;;3.08;1.67;;;;;;;;;;4922505;29;20051;-79
2023/03/13 12:20:36;;;;;;;3.75;1.70;;;;;;;;;;4927366;29;20055;-79
2023/03/13 12:23:15;;;;;;;1.93;1.00;;;;;;;;;;4924659;29;20525;-79
2023/03/13 12:25:46;;;;;;;1.33;0.98;;;;;;;;;;4941192;29;20051;-80
2023/03/13 12:28:25;;;;;;;1.70;1.40;;;;;;;;;;4930340;29;20421;-79
2023/03/13 12:30:58;;;;;;;1.63;1.15;;;;;;;;;;4911378;29;20051;-80
2023/03/13 12:33:30;;;;;;;2.25;1.40;;;;;;;;;;4919130;29;20138;-79
2023/03/13 12:36:04;;;;;;;2.35;1.80;;;;;;;;;;4919160;29;20043;-79
2023/03/13 12:38:35;;;;;;;2.83;1.83;;;;;;;;;;4914693;29;20055;-80
2023/03/13 12:41:10;;;;;;;2.25;1.60;;;;;;;;;;4903772;29;20055;-80
2023/03/13 12:43:40;;;;;;;1.88;1.40;;;;;;;;;;4911707;29;20048;-80
2023/03/13 12:46:22;;;;;;;3.60;1.60;;;;;;;;;;4923018;29;20052;-80
2023/03/13 12:49:36;;;;;;;3.67;1.40;;;;;;;;;;4928156;29;20074;-80
2023/03/13 12:52:23;;;;;;;6.05;1.65;;;;;;;;;;4889262;29;20553;-80
2023/03/13 12:55:02;;;;;;;1.92;1.48;;;;;;;;;;4918230;29;20071;-80
2023/03/13 12:57:57;;;;;;;1.95;1.70;;;;;;;;;;4914261;29;20062;-80
2023/03/13 13:00:29;;;;;;;4.10;1.25;;;;;;;;;;4913713;29;20056;-80
2023/03/13 13:03:06;;;;;;;2.03;1.52;;;;;;;;;;4922351;29;20050;-80
2023/03/13 13:05:33;;;;;;;1.63;1.20;;;;;;;;;;4915485;29;20044;-80
2023/03/13 13:08:00;;;;;;;1.48;1.27;;;;;;;;;;4917416;29;20048;-80
2023/03/13 13:10:28;;;;;;;2.78;1.30;;;;;;;;;;4921462;29;20048;-80
2023/03/13 13:13:18;;;;;;;1.92;1.63;;;;;;;;;;4922294;29;20051;-80
2023/03/13 13:15:48;;;;;;;2.58;1.63;;;;;;;;;;4912098;29;20534;-80
2023/03/13 13:18:24;;;;;;;4.15;1.20;;;;;;;;;;4914652;29;20059;-80
2023/03/13 13:21:26;;;;;;;1.88;1.40;;;;;;;;;;4931929;29;20594;-80
2023/03/13 13:24:39;;;;;;;1.67;1.38;;;;;;;;;;4912148;29;20048;-80
2023/03/13 13:27:28;;;;;;;2.28;1.40;;;;;;;;;;4920944;29;20043;-80
2023/03/13 13:30:00;;;;;;;2.30;1.20;;;;;;;;;;4910241;29;20403;-80
2023/03/13 13:32:41;;;;;;;2.30;1.25;;;;;;;;;;4918679;29;20482;-80
2023/03/13 13:35:26;;;;;;;1.67;1.58;;;;;;;;;;4922825;29;20134;-80
2023/03/13 13:38:35;;;;;;;1.40;1.20;;;;;;;;;;4918776;29;20051;-80
2023/03/13 13:41:05;;;;;;;2.20;1.30;;;;;;;;;;4898405;29;20055;-80
2023/03/13 13:43:34;;;;;;;1.83;1.30;;;;;;;;;;4904771;29;20052;-80
2023/03/13 13:46:04;;;;;;;1.95;1.50;;;;;;;;;;4922801;29;20071;-80
2023/03/13 13:48:35;;;;;;;8.93;2.10;;;;;;;;;;4917168;29;20055;-80
2023/03/13 13:51:25;;;;;;;1.77;1.40;;;;;;;;;;4917921;29;20683;-80
2023/03/13 13:53:59;;;;;;;1.73;1.60;;;;;;;;;;4911169;29;20063;-80
2023/03/13 13:56:44;;;;;;;1.70;1.20;;;;;;;;;;4913798;29;20063;-80
2023/03/13 13:59:25;;;;;;;3.97;1.60;;;;;;;;;;4905943;29;20048;-80
2023/03/13 14:02:15;;;;;;;1.88;1.30;;;;;;;;;;4921393;29;20051;-80
2023/03/13 14:04:54;;;;;;;1.50;1.15;;;;;;;;;;4911808;29;20064;-80
2023/03/13 14:07:31;;;;;;;1.73;1.23;;;;;;;;;;4920108;29;20063;-80
2023/03/13 14:10:06;;;;;;;7.43;2.33;;;;;;;;;;4914069;29;20051;-80
2023/03/13 14:12:34;;;;;;;1.88;1.10;;;;;;;;;;4909891;29;20053;-80
2023/03/13 14:15:09;;;;;;;1.45;1.00;;;;;;;;;;4919385;29;20048;-80
2023/03/13 14:17:41;;;;;;;1.13;0.60;;;;;;;;;;4916405;29;20048;-80
2023/03/13 14:20:26;;;;;;;1.60;1.50;;;;;;;;;;4915811;29;20060;-81
2023/03/13 14:22:55;;;;;;;2.08;1.15;;;;;;;;;;4908348;29;20060;-81
2023/03/13 14:25:23;;;;;;;2.25;1.20;;;;;;;;;;4909836;29;20514;-81
2023/03/13 14:27:52;;;;;;;1.92;0.80;;;;;;;;;;4896777;29;20534;-81
2023/03/13 14:30:21;;;;;;;2.10;1.02;;;;;;;;;;4927726;29;20048;-81
2023/03/13 14:32:52;;;;;;;2.08;1.30;;;;;;;;;;4908059;29;20393;-81
2023/03/13 14:35:23;;;;;;;5.45;1.70;;;;;;;;;;4904814;29;20048;-81
2023/03/13 14:38:01;;;;;;;2.38;1.08;;;;;;;;;;4919235;29;20060;-81
2023/03/13 14:40:30;;;;;;;1.77;1.20;;;;;;;;;;4903608;29;20052;-81
2023/03/13 14:42:59;;;;;;;3.33;1.25;;;;;;;;;;4917895;29;20052;-81
2023/03/13 14:45:30;;;;;;;1.30;1.20;;;;;;;;;;4923455;29;20056;-81
2023/03/13 14:48:02;;;;;;;1.80;1.33;;;;;;;;;;4922111;29;20060;-81
2023/03/13 14:50:30;;;;;;;1.52;1.25;;;;;;;;;;4920488;29;20071;-81
2023/03/13 14:53:05;;;;;;;1.00;0.90;;;;;;;;;;4914164;29;20048;-81
2023/03/13 14:55:33;;;;;;;1.70;1.20;;;;;;;;;;4919348;29;20049;-81
2023/03/13 14:58:03;;;;;;;1.20;1.10;;;;;;;;;;4914670;29;20052;-81
2023/03/13 15:00:38;;;;;;;2.08;1.40;;;;;;;;;;4913912;29;20407;-81
2023/03/13 15:03:29;;;;;;;1.73;1.10;;;;;;;;;;4911003;29;20048;-81
2023/03/13 15:06:17;;;;;;;1.60;0.88;;;;;;;;;;4934237;29;20055;-80
2023/03/13 15:08:45;;;;;;;2.00;1.08;;;;;;;;;;4915326;29;20058;-81
2023/03/13 15:11:22;;;;;;;2.67;1.23;;;;;;;;;;4918159;29;20048;-81
2023/03/13 15:13:49;;;;;;;1.08;0.93;;;;;;;;;;4915622;29;20063;-81
2023/03/13 15:16:21;;;;;;;2.28;1.45;;;;;;;;;;4923116;29;20051;-81
2023/03/13 15:18:49;;;;;;;4.88;1.77;;;;;;;;;;4902549;29;20502;-81
2023/03/13 15:21:26;;;;;;;1.83;1.73;;;;;;;;;;4915233;29;20059;-81
2023/03/13 15:23:59;;;;;;;1.58;1.13;;;;;;;;;;4928237;29;20059;-81